Home > Products > Valid Products > TAF

000
FTUS45 KTFX 182300
TAFLWT
TAF
KLWT 182327Z 1900/1924 22011KT P6SM SCT070 OVC090=



000
FTUS45 KTFX 182300
TAFBZN
TAF
KBZN 182327Z 1900/1924 VRB06KT P6SM VCSH OVC080
     FM190800 15006KT P6SM BKN110
     FM191700 VRB05KT P6SM VCSH SCT050 OVC080=



000
FTUS45 KTFX 182300
TAFGTF
TAF
KGTF 182327Z 1900/1924 21014KT P6SM BKN100
     FM190800 22011KT P6SM SCT100
     FM192100 24015G25KT P6SM SCT080 OVC100=



000
FTUS45 KTFX 182300
TAFCTB
TAF
KCTB 182327Z 1900/1924 24015KT P6SM BKN110=



000
FTUS45 KTFX 182300
TAFHLN
TAF
KHLN 182327Z 1900/1924 27005KT P6SM BKN080
     FM190700 VRB03KT P6SM VCFG SCT008 SCT110
     FM191800 VRB05KT P6SM VCSH SCT050 OVC070=



000
FTUS45 KTFX 182300
TAFHVR
TAF
KHVR 182327Z 1900/1924 24009KT P6SM SCT100=



000
FTUS45 KTFX 181700
TAFCTB
TAF
KCTB 181736Z 1818/1918 24012KT P6SM SCT150=



000
FTUS45 KTFX 181700
TAFLWT
TAF
KLWT 181736Z 1818/1918 21009KT P6SM SCT080 BKN120=



000
FTUS45 KTFX 181700
TAFHVR
TAF
KHVR 181736Z 1818/1918 22008KT P6SM SCT120=



000
FTUS45 KTFX 181700
TAFHLN
TAF
KHLN 181736Z 1818/1918 VRB05KT P6SM SCT080
     FM190300 VRB03KT P6SM VCFG SCT008 SCT080
     FM190900 VRB05KT P6SM SCT080=



000
FTUS45 KTFX 181700
TAFGTF
TAF
KGTF 181736Z 1818/1918 21016KT P6SM BKN110
     FM190300 22010KT P6SM SCT150
     FM191600 24014G24KT P6SM SCT150=



000
FTUS45 KTFX 181700
TAFBZN
TAF
KBZN 181736Z 1818/1918 VRB06KT P6SM SCT080=



000
FTUS45 KTFX 181500 AAB
TAFHVR
TAF AMD
KHVR 181541Z 1816/1912 22008KT P6SM SCT050 BKN180=



000
FTUS45 KTFX 181400 AAA
TAFHVR
TAF AMD
KHVR 181409Z 1814/1912 20006KT 2SM BR SCT003 BKN010
      TEMPO 1814/1817 1/2SM FZFG VV002
     FM181700 22008KT P6SM SCT050 BKN180=



000
FTUS45 KTFX 181400 AAA
TAFHVR
TAF AMD
KHVR 181409Z 1814/1912 20006KT 2SM BR SCT003 BKN010
      TEMPO 1814/1817 1/2SM FZFG VV002
     FM181700 22008KT P6SM SCT050 BKN180=



000
FTUS45 KTFX 181200 AAA
TAFHLN
TAF AMD
KHLN 181253Z 1813/1912 VRB05KT P6SM SCT060 BKN150
     FM190200 VRB04KT P6SM FEW090=



000
FTUS45 KTFX 181200 AAA
TAFHLN
TAF AMD
KHLN 181253Z 1813/1912 VRB05KT P6SM SCT060 BKN150
     FM190200 VRB04KT P6SM FEW090=



000
FTUS45 KTFX 181100
TAFHLN
TAF
KHLN 181137Z 1812/1912 00000KT 6SM BR FEW002 BKN250
      TEMPO 1812/1814 3/4SM BR BKN005
     FM181400 VRB04KT P6SM BKN090 OVC180
      TEMPO 1814/1816 2SM BR SCT005 SCT090
     FM190200 VRB04KT P6SM FEW090=



000
FTUS45 KTFX 181100
TAFBZN
TAF
KBZN 181137Z 1812/1912 VRB06KT P6SM BKN150
     FM190300 VRB06KT P6SM BKN090=



000
FTUS45 KTFX 181100
TAFHVR
TAF
KHVR 181137Z 1812/1912 20006KT 2SM BR SCT003 BKN010
      TEMPO 1812/1814 1/2SM FZFG VV002
     FM181400 22008KT P6SM SCT050 BKN180=



000
FTUS45 KTFX 181100
TAFLWT
TAF
KLWT 181137Z 1812/1912 VRB06KT P6SM BKN150
     FM181800 21010KT P6SM BKN120=



000
FTUS45 KTFX 181100
TAFCTB
TAF
KCTB 181137Z 1812/1912 30008KT P6SM OVC100
     FM181400 25010KT P6SM BKN150
     FM181900 27015G28KT P6SM BKN150
     FM190300 26012KT P6SM SCT150=



000
FTUS45 KTFX 181100
TAFGTF
TAF
KGTF 181137Z 1812/1912 20013KT P6SM BKN100
     FM181800 21014G28KT P6SM BKN150
     FM190300 22014KT P6SM SCT150=



000
FTUS45 KTFX 181000 AAA
TAFHVR
TAF AMD
KHVR 181023Z 1810/1906 VRB06KT 2SM BR SCT003 BKN010
      TEMPO 1810/1814 1/2SM FZFG VV003
     FM181400 22008KT P6SM SCT050 BKN180=



000
FTUS45 KTFX 181000 AAA
TAFHLN
TAF AMD
KHLN 181003Z 1810/1906 00000KT 2SM BR FEW002 BKN250
      TEMPO 1810/1814 1/2SM FZFG VV002
     FM181400 VRB04KT P6SM BKN090 OVC180
      TEMPO 1814/1816 2SM BR SCT005 SCT090
     FM190200 VRB04KT P6SM FEW090=



000
FTUS45 KTFX 180500 CCA
TAFHLN
TAF COR
KHLN 180531Z 1806/1906 00000KT 6SM BR FEW002 BKN250
      TEMPO 1806/1810 1/4SM FZFG BKN002
     FM181400 VRB04KT P6SM BKN090 OVC180
     FM190200 VRB04KT P6SM FEW090=



000
FTUS45 KTFX 180500
TAFGTF
TAF
KGTF 180527Z 1806/1906 20010KT P6SM SCT250
     FM181200 21014KT P6SM BKN090
     FM190300 22010KT P6SM FEW120=



000
FTUS45 KTFX 180500
TAFLWT
TAF
KLWT 180527Z 1806/1906 22006KT P6SM OVC070=



000
FTUS45 KTFX 180500
TAFHVR
TAF
KHVR 180527Z 1806/1906 17004KT 1/4SM FZFG VV002
      TEMPO 1806/1810 3SM BR BKN005
     FM181000 22008KT P6SM SCT050 BKN180=



000
FTUS45 KTFX 180500
TAFBZN
TAF
KBZN 180527Z 1806/1906 15008KT P6SM FEW090 SCT250
     FM181200 VRB04KT P6SM BKN090=



000
FTUS45 KTFX 180500
TAFCTB
TAF
KCTB 180527Z 1806/1906 VRB04KT P6SM FEW003 BKN180
      TEMPO 1806/1808 00000KT 3SM BR SCT001
     FM181300 25009KT P6SM BKN180=



000
FTUS45 KTFX 180500
TAFHLN
TAF
KHLN 180527Z 1806/1906 00000KT P6SM FEW003 BKN250
      TEMPO 1806/1810 1SM BR BKN002
     FM181400 VRB04KT P6SM BKN090 OVC180
     FM190200 VRB04KT P6SM FEW090=



000
FTUS45 KTFX 180400 AAC
TAFHVR
TAF AMD
KHVR 180442Z 1805/1824 00000KT 1/2SM FZFG VV002
      TEMPO 1805/1809 3SM BR BKN005
     FM181200 22008KT P6SM BKN090=



000
FTUS45 KTFX 180400 AAA
TAFHLN
TAF AMD
KHLN 180439Z 1805/1824 VRB03KT 1/2SM FZFG VV002
      TEMPO 1807/1811 3SM BR BKN008
     FM181100 VRB03KT P6SM BKN090=



000
FTUS45 KTFX 180300 AAB
TAFHVR
TAF AMD
KHVR 180309Z 1803/1824 00000KT 3SM BR BKN005
      TEMPO 1803/1807 1SM BR OVC003
     FM180700 13006KT P6SM FEW010 BKN250
     FM181200 22008KT P6SM BKN090=



000
FTUS45 KTFX 180000 AAA
TAFHVR
TAF AMD
KHVR 180052Z 1801/1824 08006KT P6SM FEW010 BKN250
     FM181200 22008KT P6SM BKN090=



000
FTUS45 KTFX 172300 CCA
TAFHVR
TAF COR
KHVR 172328Z 1800/1824 08006KT P6SM BKN007
     FM180200 13006KT P6SM SCT008 BKN250
     FM181200 22008KT P6SM BKN090=



000
FTUS45 KTFX 172300
TAFLWT
TAF
KLWT 172320Z 1800/1824 VRB04KT P6SM SCT060 BKN090
     FM180200 22006KT P6SM SCT090 BKN250
     FM181500 22006KT P6SM BKN090=



000
FTUS45 KTFX 172300
TAFBZN
TAF
KBZN 172320Z 1800/1824 VRB04KT P6SM FEW070 SCT250
     FM181200 VRB04KT P6SM BKN090=



000
FTUS45 KTFX 172300
TAFHVR
TAF
KHVR 172320Z 1800/1824 08006KT P6SM BKN008
     FM180200 13006KT P6SM SCT008 BKN250
     FM181200 22008KT P6SM BKN090=



000
FTUS45 KTFX 172300
TAFHLN
TAF
KHLN 172320Z 1800/1824 VRB03KT P6SM FEW070 SCT250
     FM180900 VRB03KT P6SM BKN090=



000
FTUS45 KTFX 172300
TAFCTB
TAF
KCTB 172320Z 1800/1824 VRB03KT 1/4SM FZFG VV002
      TEMPO 1803/1807 25007KT 4SM BR BKN008
     FM180700 25009KT P6SM BKN120=



000
FTUS45 KTFX 172300
TAFGTF
TAF
KGTF 172320Z 1800/1824 21010KT P6SM FEW070 SCT250
     FM180900 21014KT P6SM BKN090=



000
FTUS45 KTFX 172000 AAA
TAFHVR
TAF AMD
KHVR 172017Z 1720/1818 VRB06KT P6SM SCT008 OVC014
      TEMPO 1720/1723 BKN008
     FM180400 VRB03KT 5SM BR OVC005
     FM180900 23006KT P6SM BKN250=



000
FTUS45 KTFX 172000 AAA
TAFCTB
TAF AMD
KCTB 172015Z 1720/1818 VRB03KT 1/4SM FZFG VV002
     FM172200 25008KT P6SM SCT250
     FM180900 25010KT P6SM BKN120=



000
FTUS45 KTFX 171700
TAFHLN
TAF
KHLN 171740Z 1718/1818 VRB03KT P6SM BKN070
     FM172100 VRB03KT P6SM SKC
     FM180000 VRB03KT P6SM BKN250
     FM180800 VRB03KT P6SM BKN100=



000
FTUS45 KTFX 171700
TAFGTF
TAF
KGTF 171740Z 1718/1818 21008KT P6SM BKN060
     FM172000 21010KT P6SM SCT250
     FM180900 21014KT P6SM BKN100=



000
FTUS45 KTFX 171700
TAFLWT
TAF
KLWT 171740Z 1718/1818 12004KT 5SM -SN OVC035
      TEMPO 1718/1720 2SM -SN BR OVC020
     FM172000 VRB05KT P6SM BKN050
     FM172200 VRB04KT P6SM BKN250
     FM180200 22006KT P6SM BKN250
     FM181500 22006KT P6SM BKN120=



000
FTUS45 KTFX 171700
TAFBZN
TAF
KBZN 171740Z 1718/1818 VRB05KT P6SM BKN070
     FM172200 VRB05KT P6SM SCT070
     FM180100 VRB04KT P6SM BKN250
     FM181200 VRB04KT P6SM BKN090=



000
FTUS45 KTFX 171700
TAFCTB
TAF
KCTB 171740Z 1718/1818 VRB03KT 1/4SM FZFG VV002
     FM172000 25008KT P6SM SCT250
     FM180900 25010KT P6SM BKN120=



000
FTUS45 KTFX 171700
TAFHVR
TAF
KHVR 171740Z 1718/1818 08005KT 4SM -SN BR OVC016
     FM172000 15006KT P6SM BKN090
     FM180400 VRB03KT 5SM BR OVC005
     FM180900 23006KT P6SM BKN250=



000
FTUS45 KTFX 171600 AAB
TAFLWT
TAF AMD
KLWT 171610Z 1716/1812 12005KT 2SM -SN BR OVC010
      TEMPO 1716/1718 5SM -SN BR SCT010 OVC025
     FM171800 VRB06KT P6SM BKN060
     FM172000 21006KT P6SM SCT060 BKN180
     FM180300 15005KT P6SM SCT180
     FM180900 VRB06KT P6SM BKN060=



000
FTUS45 KTFX 171600 AAA
TAFCTB
TAF AMD
KCTB 171608Z 1716/1812 16008KT 1/4SM FZFG VV001
      TEMPO 1718/1719 3SM BR SCT003 SCT150
     FM171900 23008KT P6SM SCT180
     FM180900 25006KT P6SM BKN120=



000
FTUS45 KTFX 171600 AAB
TAFBZN
TAF AMD
KBZN 171607Z 1716/1812 VRB06KT 3SM BR OVC070
     FM171800 VRB05KT P6SM BKN070
     FM180000 VRB06KT P6SM SCT050 BKN180=



000
FTUS45 KTFX 171500 AAB
TAFHVR
TAF AMD
KHVR 171520Z 1715/1812 06005KT 4SM -SN BR OVC018
      TEMPO 1715/1717 OVC045
     FM171700 14006KT P6SM BKN080
     FM180300 23005KT 6SM BR OVC005=



000
FTUS45 KTFX 171500 AAA
TAFHLN
TAF AMD
KHLN 171516Z 1715/1812 VRB03KT 3SM BR OVC070
     FM171700 VRB06KT P6SM SCT070 BKN200
     FM180800 VRB06KT P6SM BKN120=



000
FTUS45 KTFX 171400 AAA
TAFLWT
TAF AMD
KLWT 171444Z 1715/1812 12005KT P6SM BKN010 OVC040
      TEMPO 1715/1717 SCT010 OVC040
     FM171700 VRB06KT P6SM BKN060
     FM172000 21006KT P6SM SCT060 BKN180
     FM180300 15005KT P6SM SCT180
     FM180900 VRB06KT P6SM BKN060=



000
FTUS45 KTFX 171400 AAA
TAFBZN
TAF AMD
KBZN 171441Z 1715/1812 VRB06KT P6SM OVC070
      TEMPO 1715/1716 3SM -SN BR OVC025
     FM180000 VRB06KT P6SM SCT050 BKN180=



000
FTUS45 KTFX 171200 AAA
TAFHVR
TAF AMD
KHVR 171249Z 1713/1812 06005KT 6SM BR OVC070
      TEMPO 1713/1715 2SM BR BKN010
     FM171700 14006KT P6SM BKN080
     FM180300 23005KT 6SM BR OVC005=



000
FTUS45 KTFX 171100
TAFBZN
TAF
KBZN 171138Z 1712/1812 VRB06KT 3SM -SN BR OVC025
      TEMPO 1712/1715 3/4SM -SN OVC012
     FM171800 VRB06KT P6SM BKN035
     FM180000 VRB06KT P6SM SCT050 BKN180=



000
FTUS45 KTFX 171100
TAFLWT
TAF
KLWT 171138Z 1712/1812 VRB06KT P6SM OVC060
     FM172000 21006KT P6SM SCT060 BKN180
     FM180300 15005KT P6SM SCT180
     FM180900 VRB06KT P6SM BKN060=



000
FTUS45 KTFX 171100
TAFHLN
TAF
KHLN 171138Z 1712/1812 00000KT 6SM -SN OVC070
      TEMPO 1712/1716 2SM -SN BR BKN025
     FM171600 VRB06KT P6SM SCT070 BKN200
     FM180800 VRB06KT P6SM BKN120=



000
FTUS45 KTFX 171100
TAFHVR
TAF
KHVR 171138Z 1712/1812 VRB06KT 6SM BR OVC010
      TEMPO 1712/1715 2SM BR BKN005
     FM171700 14006KT P6SM OVC012
     FM180300 23005KT 6SM BR OVC005=



000
FTUS45 KTFX 171100
TAFCTB
TAF
KCTB 171138Z 1712/1812 16008KT 1/4SM FZFG VV001
      TEMPO 1713/1717 3SM BR SCT003 SCT150
     FM171700 23008KT P6SM SCT180
     FM180900 25006KT P6SM BKN120=



000
FTUS45 KTFX 171100
TAFGTF
TAF
KGTF 171138Z 1712/1812 VRB06KT 6SM BR OVC060
      TEMPO 1712/1715 2SM BR SCT008
     FM171800 21006KT P6SM SCT060 SCT180
     FM180600 21008KT P6SM BKN120=



000
FTUS45 KTFX 171000 AAA
TAFHVR
TAF AMD
KHVR 171027Z 1710/1806 00000KT 6SM BR BKN006
      TEMPO 1710/1714 1 1/2SM BR OVC002
     FM171400 VRB06KT P6SM SCT004 BKN015
      TEMPO 1715/1717 5SM -SHSN BR BKN010
     FM171800 18006KT P6SM SCT020 BKN040=



000
FTUS45 KTFX 170800 AAA
TAFBZN
TAF AMD
KBZN 170858Z 1709/1806 VRB04KT 6SM -SN OVC035
      TEMPO 1709/1713 2SM -SN SCT010 OVC020
     FM171300 VRB03KT P6SM OVC040
     FM171700 VRB04KT P6SM SCT070=



000
FTUS45 KTFX 170800 AAA
TAFBZN
TAF AMD
KBZN 170858Z 1709/1806 VRB04KT 6SM -SN OVC035
      TEMPO 1709/1713 2SM -SN SCT010 OVC020
     FM171300 VRB03KT P6SM OVC040
     FM171700 VRB04KT P6SM SCT070=



000
FTUS45 KTFX 170500 RRA
TAFLWT
TAF
KLWT 170541Z 1706/1806 VRB04KT P6SM SCT040 BKN080
     FM171000 VRB06KT 5SM -SN BR BKN040
      TEMPO 1712/1716 2SM -SN BR BKN010
     FM171800 18006KT P6SM SCT020 BKN040
     FM172200 VRB05KT P6SM SCT050 BKN120=



000
FTUS45 KTFX 170500 RRA
TAFGTF
TAF
KGTF 170541Z 1706/1806 VRB04KT P6SM VCFG SCT050 BKN080
     FM171000 20004KT P6SM SCT030 BKN060
      TEMPO 1710/1712 5SM -SHSN BR BKN040
     FM171300 21009KT P6SM SCT040 BKN070
     FM171800 22011KT P6SM SCT070 BKN120=



000
FTUS45 KTFX 170500 RRA
TAFHVR
TAF
KHVR 170541Z 1706/1806 17004KT P6SM BKN006
      TEMPO 1706/1709 2SM BR BKN003
     FM171000 VRB04KT P6SM SCT003 BKN010
     FM171400 VRB06KT P6SM SCT004 BKN015
      TEMPO 1715/1717 5SM -SHSN BR BKN010
     FM171800 18006KT P6SM SCT020 BKN040=



000
FTUS45 KTFX 170500 RRA
TAFHLN
TAF
KHLN 170541Z 1706/1806 VRB04KT 5SM -SHSN BR SCT020 BKN040
      TEMPO 1706/1710 2SM -SN BR BKN020
     FM171100 VRB03KT P6SM SCT030 BKN060
     FM171700 VRB04KT P6SM SCT060=



000
FTUS45 KTFX 170500 RRA
TAFBZN
TAF
KBZN 170541Z 1706/1806 VRB04KT P6SM SCT060 BKN120
      TEMPO 1706/1709 4SM -SHSN BR BKN050
     FM171300 VRB03KT P6SM SCT070 BKN130
     FM171700 VRB04KT P6SM SCT070=



000
FTUS45 KTFX 170500 RRA
TAFCTB
TAF
KCTB 170541Z 1706/1806 16012KT 1/2SM FZFG VV002
      TEMPO 1707/1711 1SM BR BKN005
     FM171100 15008KT 3SM BR BKN006
      TEMPO 1711/1714 1/2SM FZFG VV002
     FM171400 20006KT P6SM SCT050 BKN080
      TEMPO 1714/1717 2SM BR BKN006
     FM171900 24009KT P6SM SCT070 BKN130=



000
FTUS45 KTFX 170200 AAA
TAFGTF
TAF AMD
KGTF 170245Z 1703/1724 VRB04KT P6SM VCFG FEW005 SCT070 BKN120
      TEMPO 1703/1705 3/4SM BR BKN003
     FM170500 21007KT P6SM BKN060
      TEMPO 1707/1711 4SM -SHSN BKN030
     FM171100 20008KT 4SM -SHSN BKN030
      TEMPO 1711/1714 2SM -SN BR BKN020
     FM171500 21009KT P6SM SCT030 BKN070=



000
FTUS45 KTFX 170200 AAA
TAFHVR
TAF AMD
KHVR 170231Z 1703/1724 VRB04KT P6SM OVC004
      TEMPO 1703/1706 1SM BR BKN002
     FM171400 VRB06KT 4SM -SN BR OVC004 PROB30 1716/1720 2SM -SN BR
      BKN005
     FM172100 18006KT P6SM SCT020 BKN040=



000
FTUS45 KTFX 170200 AAA
TAFCTB
TAF AMD
KCTB 170210Z 1702/1724 16012KT 1/2SM FZFG VV001
      TEMPO 1708/1711 1SM BR VV003
     FM171100 15008KT 1SM BR BKN004
      TEMPO 1711/1714 1/4SM FZFG VV001
     FM171400 20006KT P6SM SCT050 BKN080
      TEMPO 1714/1717 1SM BR BKN006=



000
FTUS45 KTFX 170200 AAA
TAFBZN
TAF AMD
KBZN 170209Z 1702/1724 VRB04KT P6SM OVC080
      TEMPO 1702/1704 5SM -SHSN BKN050
     FM170400 VRB04KT 4SM -SN BR OVC040
      TEMPO 1705/1709 2SM -SN BR OVC020
     FM171300 VRB03KT P6SM OVC060
     FM171700 VRB04KT P6SM SCT060=



000
FTUS45 KTFX 162300 RRA
TAFGTF
TAF
KGTF 162347Z 1700/1724 VRB04KT P6SM VCFG FEW005 SCT070 BKN120
     FM170500 21007KT P6SM BKN060
      TEMPO 1707/1711 4SM -SHSN BKN030
     FM171100 20008KT 4SM -SHSN BKN030
      TEMPO 1711/1714 2SM -SN BR BKN020
     FM171500 21009KT P6SM SCT030 BKN070=



000
FTUS45 KTFX 162300 RRA
TAFCTB
TAF
KCTB 162347Z 1700/1724 14012KT 1/4SM FZFG VV001
      TEMPO 1708/1711 1/2SM FZFG VV003
     FM171100 15008KT 1SM BR BKN004
      TEMPO 1711/1714 1/4SM FZFG VV001
     FM171400 20006KT P6SM SCT050 BKN080
      TEMPO 1714/1717 1SM BR BKN006=



000
FTUS45 KTFX 162300 RRA
TAFLWT
TAF
KLWT 162347Z 1700/1724 VRB04KT P6SM SCT040 BKN080
     FM170900 VRB06KT 5SM -SN BR BKN020 PROB30 1711/1715 2SM -SN BR
      BKN010
     FM171800 18006KT P6SM SCT020 BKN040=



000
FTUS45 KTFX 162300 RRA
TAFBZN
TAF
KBZN 162347Z 1700/1724 VRB04KT P6SM OVC080
     FM170200 VRB04KT 4SM -SN BR OVC040
      TEMPO 1703/1707 2SM -SN BR OVC020
     FM171300 VRB03KT P6SM OVC060
     FM171700 VRB04KT P6SM SCT060=



000
FTUS45 KTFX 162300 RRA
TAFHLN
TAF
KHLN 162347Z 1700/1724 VRB04KT P6SM OVC080
     FM170400 VRB04KT 5SM -SN BR OVC040
      TEMPO 1706/1710 2SM -SN BR OVC020
     FM171300 VRB03KT P6SM OVC060
     FM171700 VRB04KT P6SM SCT060=



000
FTUS45 KTFX 162300 RRA
TAFHVR
TAF
KHVR 162347Z 1700/1724 19008KT P6SM OVC004
     FM171400 VRB06KT 4SM -SN BR OVC004 PROB30 1716/1720 2SM -SN BR
      BKN005
     FM172100 18006KT P6SM SCT020 BKN040=



000
FTUS45 KTFX 162100 AAA
TAFCTB
TAF AMD
KCTB 162121Z 1621/1718 14012KT 1/4SM FZFG VV002
      TEMPO 1622/1702 14010KT 4SM BR OVC004
     FM170200 15008KT 1/2SM FZFG OVC002
     FM170700 20006KT P6SM BKN120=



000
FTUS45 KTFX 161900 AAB
TAFHVR
TAF AMD
KHVR 161950Z 1620/1718 09008KT P6SM OVC004
      TEMPO 1620/1624 2SM BR OVC003
     FM171500 VRB06KT 4SM -SN BR OVC004=



000
FTUS45 KTFX 161900 AAA
TAFGTF
TAF AMD
KGTF 161939Z 1620/1718 09006KT 3SM BR OVC002
     FM162100 09006KT P6SM BKN250
     FM170300 VRB06KT 1/2SM FZFG OVC003
     FM170700 VRB06KT 1SM -SN BR OVC005
     FM171400 VRB06KT 3SM BR OVC006
     FM171700 21007KT P6SM BKN060=



000
FTUS45 KTFX 161900 AAA
TAFHVR
TAF AMD
KHVR 161901Z 1619/1718 09008KT P6SM OVC004
     FM171500 VRB06KT 4SM -SN BR OVC004=



000
FTUS45 KTFX 161700
TAFLWT
TAF
KLWT 161739Z 1618/1718 12005KT P6SM BKN250
     FM170400 12005KT P6SM OVC080
     FM170900 14007KT P6SM OVC025 PROB30 1709/1715 5SM -SN BR OVC012
     FM171600 VRB06KT P6SM BKN100=



000
FTUS45 KTFX 161700
TAFCTB
TAF
KCTB 161739Z 1618/1718 15012KT 1/4SM FZFG VV002
     FM162100 15010KT 4SM BR OVC004
     FM170200 15008KT 1/2SM FZFG OVC002
     FM170700 20006KT P6SM BKN120=



000
FTUS45 KTFX 161700
TAFHVR
TAF
KHVR 161739Z 1618/1718 09008KT 5SM BR OVC006
     FM171500 VRB06KT 4SM -SN BR OVC004=



000
FTUS45 KTFX 161700
TAFHLN
TAF
KHLN 161739Z 1618/1718 VRB04KT P6SM BKN200
     FM170000 VRB04KT P6SM OVC080
     FM170600 VRB04KT P6SM -SN OVC040
      TEMPO 1707/1711 4SM -SN BR OVC020
     FM171300 VRB03KT P6SM OVC060
     FM171700 VRB04KT P6SM SCT060=



000
FTUS45 KTFX 161700
TAFGTF
TAF
KGTF 161739Z 1618/1718 VRB03KT 3/4SM BR VV002
     FM161900 09006KT P6SM BKN250
     FM170300 VRB06KT 1/2SM FZFG OVC003
     FM170700 VRB06KT 1SM -SN BR OVC005
     FM171400 VRB06KT 3SM BR OVC006
     FM171700 21007KT P6SM BKN060=



000
FTUS45 KTFX 161700
TAFBZN
TAF
KBZN 161739Z 1618/1718 VRB03KT P6SM BKN120
     FM170000 VRB03KT P6SM VCSH OVC070
     FM170600 VRB03KT P6SM VCSH OVC045
      TEMPO 1706/1710 5SM -SN BR OVC025=



000
FTUS45 KTFX 161600 AAA
TAFCTB
TAF AMD
KCTB 161647Z 1617/1712 14009KT 1/4SM FZFG VV001
     FM162100 18007KT 4SM BR OVC002
     FM170400 20008KT P6SM SCT050 BKN090=



000
FTUS45 KTFX 161600 AAA
TAFGTF
TAF AMD
KGTF 161642Z 1617/1712 04005KT 1/4SM FZFG VV001
     FM161800 12007KT P6SM SCT100 BKN200
     FM170000 16008KT P6SM SCT060 BKN100
     FM170600 20010KT P6SM VCSH SCT035 OVC060=



000
FTUS45 KTFX 161500 AAB
TAFHVR
TAF AMD
KHVR 161511Z 1615/1712 VRB06KT 1/2SM FZFG OVC002
      TEMPO 1615/1618 4SM BR OVC004
     FM161800 09007KT P6SM SCT020
     FM162000 09011KT P6SM SCT100 BKN200
     FM170300 09008KT P6SM SCT080 BKN120=



000
FTUS45 KTFX 161200 AAA
TAFHVR
TAF AMD
KHVR 161237Z 1613/1712 06006KT 1/2SM FZFG OVC002
      TEMPO 1614/1616 4SM BR SCT010
     FM161600 09007KT P6SM SCT020
     FM162000 09011KT P6SM SCT100 BKN200
     FM170300 09008KT P6SM SCT080 BKN120=



000
FTUS45 KTFX 161100
TAFCTB
TAF
KCTB 161140Z 1612/1712 14009KT 1/4SM FZFG VV001
      TEMPO 1615/1618 3SM BR BKN005
     FM161800 16007KT 3SM BR SCT007 BKN012
      TEMPO 1618/1621 1SM BR BKN007
     FM162100 18007KT 6SM BR BKN020
     FM170000 20008KT P6SM SCT050 BKN090=



000
FTUS45 KTFX 161100
TAFHLN
TAF
KHLN 161140Z 1612/1712 VRB04KT P6SM SCT100 BKN200
     FM162100 VRB06KT P6SM SCT060 BKN100
     FM170300 VRB04KT P6SM VCSH SCT035 OVC060 PROB30 1707/1711 4SM
      -SN BR BKN025=



000
FTUS45 KTFX 161100
TAFBZN
TAF
KBZN 161140Z 1612/1712 VRB04KT P6SM SCT080 BKN150
     FM161800 VRB04KT P6SM SCT050 BKN090
     FM170000 VRB05KT P6SM VCSH SCT035 OVC060 PROB30 1705/1709 4SM
      -SN BR BKN025=



000
FTUS45 KTFX 161100
TAFHVR
TAF
KHVR 161140Z 1612/1712 06006KT P6SM VCFG OVC005
      TEMPO 1613/1616 4SM BR SCT010
     FM161600 09007KT P6SM SCT020
     FM162000 09011KT P6SM SCT100 BKN200
     FM170300 09008KT P6SM SCT080 BKN120=



000
FTUS45 KTFX 161100
TAFGTF
TAF
KGTF 161140Z 1612/1712 04005KT 1/4SM FZFG VV001
      TEMPO 1614/1617 3SM BR SCT005 SCT200
     FM161700 12007KT P6SM SCT100 BKN200
     FM170000 16008KT P6SM SCT060 BKN100
     FM170600 20010KT P6SM VCSH SCT035 OVC060=



000
FTUS45 KTFX 161100
TAFLWT
TAF
KLWT 161140Z 1612/1712 12008KT P6SM SCT010 SCT200
     FM161800 16010KT P6SM SCT025 SCT100 BKN200
     FM170000 14008KT P6SM SCT080 BKN120
     FM170900 11008KT P6SM VCSH SCT040 BKN070=



000
FTUS45 KTFX 161000 AAA
TAFHVR
TAF AMD
KHVR 161009Z 1610/1706 08007KT P6SM VCFG BKN007
      TEMPO 1612/1616 SCT010
     FM161600 11007KT P6SM SCT020
     FM162100 09008KT P6SM SCT070 BKN150=



000
FTUS45 KTFX 161000 AAA
TAFHVR
TAF AMD
KHVR 161009Z 1610/1706 08007KT P6SM VCFG BKN007
      TEMPO 1612/1616 SCT010
     FM161600 11007KT P6SM SCT020
     FM162100 09008KT P6SM SCT070 BKN150=



000
FTUS45 KTFX 160900 AAB
TAFGTF
TAF AMD
KGTF 160958Z 1610/1706 04005KT 1/4SM FZFG VV001
      TEMPO 1613/1616 3SM BR SCT005 SCT200
     FM161600 VRB04KT P6SM BKN200
     FM170000 VRB05KT P6SM SCT080 BKN120=



000
FTUS45 KTFX 160900 AAB
TAFLWT
TAF AMD
KLWT 160954Z 1610/1706 13008KT P6SM SCT010
     FM161800 17010KT P6SM SCT020
     FM162200 13008KT P6SM SCT080 BKN120=



000
FTUS45 KTFX 160900 AAB
TAFLWT
TAF AMD
KLWT 160954Z 1610/1706 13008KT P6SM SCT010
     FM161800 17010KT P6SM SCT020
     FM162200 13008KT P6SM SCT080 BKN120=



000
FTUS45 KTFX 160900 AAA
TAFGTF
TAF AMD
KGTF 160913Z 1609/1706 VRB04KT 6SM PRFG SCT003 SCT150
      TEMPO 1609/1613 1/2SM FZFG BKN002
     FM161600 VRB04KT P6SM BKN200
     FM162100 VRB04KT P6SM SCT150
     FM170000 VRB05KT P6SM SCT080 BKN120=



000
FTUS45 KTFX 160600 AAA
TAFLWT
TAF AMD
KLWT 160623Z 1606/1706 12007KT P6SM SCT006
      TEMPO 1608/1611 BKN006
     FM161100 13009KT P6SM VCFG BKN005
     FM161800 17010KT P6SM SCT020
     FM162200 13008KT P6SM SCT080 BKN120=



000
FTUS45 KTFX 160500
TAFBZN
TAF
KBZN 160532Z 1606/1706 15006KT P6SM SCT080
     FM160800 15006KT P6SM VCFG SCT200
     FM161600 VRB04KT P6SM BKN200
     FM162100 VRB04KT P6SM SCT080 BKN150
     FM170000 VRB05KT P6SM SCT050 BKN090 PROB30 1701/1705 4SM -SHSN
      BKN040=



000
FTUS45 KTFX 160500
TAFLWT
TAF
KLWT 160532Z 1606/1706 11007KT P6SM BKN006
     FM161100 13009KT P6SM VCFG BKN005
     FM161800 17010KT P6SM SCT020
     FM162200 13008KT P6SM SCT080 BKN120=



000
FTUS45 KTFX 160500
TAFCTB
TAF
KCTB 160532Z 1606/1706 16005KT 1/4SM FZFG VV001
      TEMPO 1615/1618 3SM BR BKN002
     FM161800 16005KT 3SM BR SCT005 BKN010
      TEMPO 1618/1621 1SM BR BKN003
     FM162100 18005KT 5SM BR BKN010
     FM170000 20007KT P6SM SCT040 BKN080=



000
FTUS45 KTFX 160500
TAFHVR
TAF
KHVR 160532Z 1606/1706 08007KT P6SM BKN009
     FM161100 11009KT P6SM VCFG BKN009
     FM161800 11007KT P6SM SCT020
     FM162100 09008KT P6SM SCT070 BKN150=



000
FTUS45 KTFX 160500
TAFHLN
TAF
KHLN 160532Z 1606/1706 VRB04KT P6SM SCT100
     FM160900 VRB04KT P6SM VCFG SCT150
     FM161600 VRB04KT P6SM BKN200
     FM162100 VRB04KT P6SM SCT080 BKN150
     FM170300 VRB04KT P6SM VCSH SCT050 BKN080=



000
FTUS45 KTFX 160500
TAFGTF
TAF
KGTF 160532Z 1606/1706 VRB04KT P6SM FEW100
     FM160900 VRB04KT P6SM VCFG SCT150
      TEMPO 1611/1614 1SM BR SCT003
     FM161600 VRB04KT P6SM BKN200
     FM162100 VRB04KT P6SM SCT150
     FM170000 VRB05KT P6SM SCT080 BKN120=



    US Dept of Commerce
    National Oceanic and Atmospheric Administration
    National Weather Service
    1325 East West Highway
    Silver Spring, MD 20910
    Page Author: NWS Internet Services Team
Disclaimer
Information Quality
Credits
Glossary
Privacy Policy
Freedom of Information Act (FOIA)
About Us
Career Opportunities